This is the latest recevied weather packets stored in our database for station/object DF9PV-5. If no packets are shown the sender has not sent any weather packets the latest 10 day(s).
| Time | Temp. | Humidity | Pressure | Rain* | Wind** | Luminosity | Snow |
|---|---|---|---|---|---|---|---|
| 1777631759 | 21.11° C | 26% | 1026 hPa | 0 mm | - | - | - |
| 1777628735 | 20° C | 27% | 1026.4 hPa | 0 mm | - | - | - |
| 1777627856 | 20° C | 28% | 1026.5 hPa | 0 mm | - | - | - |
| 1777626104 | 18.89° C | 27% | 1026.8 hPa | 0 mm | - | - | - |
| 1777624865 | 17.78° C | 30% | 1026.9 hPa | 0 mm | - | - | - |
| 1777624545 | 17.78° C | 31% | 1027 hPa | 0 mm | - | - | - |
| 1777623073 | 17.22° C | 31% | 1027.2 hPa | 0 mm | - | - | - |
| 1777622433 | 17.22° C | 34% | 1027.1 hPa | 0 mm | - | - | - |
| 1777622143 | 17.22° C | 34% | 1027.2 hPa | 0 mm | - | - | - |
| 1777621882 | 17.22° C | 34% | 1027.2 hPa | 0 mm | - | - | - |
| 1777621231 | 16.67° C | 36% | 1027.2 hPa | 0 mm | - | - | - |
| 1777620321 | 16.11° C | 38% | 1027.3 hPa | 0 mm | - | - | - |
| 1777612527 | 6.67° C | 67% | 1026.9 hPa | 0 mm | - | - | - |
| 1777611937 | 6.11° C | 69% | 1026.8 hPa | 0 mm | - | - | - |
| 1777611670 | 6.11° C | 69% | 1026.8 hPa | 0 mm | - | - | - |
| 1777611041 | 6.11° C | 68% | 1026.7 hPa | 0 mm | - | - | - |
| 1777609868 | 6.11° C | 69% | 1026.8 hPa | 0 mm | - | - | - |
| 1777605921 | 7.22° C | 63% | 1026.7 hPa | 0 mm | - | - | - |
| 1777605028 | 7.22° C | 62% | 1026.6 hPa | 0 mm | - | - | - |
| 1777603535 | 7.78° C | 60% | 1026.6 hPa | 0 mm | - | - | - |
| 1777603238 | 7.78° C | 60% | 1026.6 hPa | 0 mm | - | - | - |
| 1777598735 | 10.56° C | 48% | 1026.5 hPa | 0 mm | - | - | - |
| 1777596641 | 11.11° C | 48% | 1026.7 hPa | 0 mm | - | - | - |
| 1777595728 | 10.56° C | 49% | 1026.7 hPa | 0 mm | - | - | - |
| 1777595425 | 10.56° C | 50% | 1026.6 hPa | 0 mm | - | - | - |
* Rain latest hour (hover to see other rain measurements)
** Current wind speed in m/s (hover to see current wind gust speed)